Terminal Aerodrome Forecast
Issued by NWS

Home | Current Version | Previous Version | Text Only | Print | Product List | Glossary On
Versions: 1 2 3 4 5 6 7 8 9 10 11 12 13 14 15 16 17 18 19 20 21 22 23 24 25 26
000
FTUS46 KEKA 230544
TAFCEC
TAF
KCEC 230544Z 2306/2406 17018G30KT P6SM BKN025 OVC060
      TEMPO 2306/2310 5SM -RA SCT019 BKN025
     FM231200 17015G20KT P6SM VCSH SCT025 BKN035
     FM231600 18009KT 5SM -RA BR SCT015 BKN025
     FM232100 18006KT P6SM BKN030 OVC050=

USA.gov is the U.S. government's official web portal to all federal, state and local government web resources and services.